NRG weather

Narrogin Airport
Narrogin, Western Australia, Australia

Public forecast

Using degrees Celsius for public forecast. Weather courtesy of forecast.io.

METAR (pilot weather report)

Closest report is Perth Jandakot Airport, 78.6 nm (145.6 km) NW. Retrieved 2019/04/18 22:00 UTC (6 minutes ago):

YPJT 182200Z AUTO 21010KT 9999 // SCT027 SCT067 BKN079 12/10 Q1012

TAF (pilot weather forecast)

Closest forecast is Perth Jandakot Airport, 78.6 nm (145.6 km) NW. Retrieved 2019/04/18 18:00 UTC (4 hours ago):

TAF YPJT 181639Z 1818/1912 22014G28KT 9999 -SHRA SCT015 BKN020 FM190200 23014G30KT 9999 -SHRA BKN035 TEMPO 1818/1821 VRB25G40KT 2000 +SHRA BKN008 INTER 1821/1912 23025G40KT 3000 SHRAGS BKN012